sensor_id;sensor_type;location;lat;lon;timestamp;pressure;altitude;pressure_sealevel;temperature;humidity
11444;BME280;5778;47.856;12.154;2023-01-25T00:01:06;97786.44;;;0.79;100.00
11444;BME280;5778;47.856;12.154;2023-01-25T00:03:33;97783.53;;;0.90;100.00
11444;BME280;5778;47.856;12.154;2023-01-25T00:06:00;97775.69;;;0.90;100.00
11444;BME280;5778;47.856;12.154;2023-01-25T00:08:28;97776.34;;;0.92;100.00
11444;BME280;5778;47.856;12.154;2023-01-25T00:10:57;97777.69;;;0.96;100.00
11444;BME280;5778;47.856;12.154;2023-01-25T00:13:26;97777.97;;;0.85;100.00
11444;BME280;5778;47.856;12.154;2023-01-25T00:15:53;97774.84;;;0.81;100.00
11444;BME280;5778;47.856;12.154;2023-01-25T00:18:20;97767.53;;;0.93;100.00
11444;BME280;5778;47.856;12.154;2023-01-25T00:20:47;97771.09;;;0.92;100.00
11444;BME280;5778;47.856;12.154;2023-01-25T00:23:15;97772.91;;;0.91;100.00
11444;BME280;5778;47.856;12.154;2023-01-25T00:25:43;97766.91;;;0.99;100.00
11444;BME280;5778;47.856;12.154;2023-01-25T00:28:12;97774.56;;;1.00;100.00
11444;BME280;5778;47.856;12.154;2023-01-25T00:30:41;97766.44;;;1.11;100.00
11444;BME280;5778;47.856;12.154;2023-01-25T00:33:32;97775.47;;;1.17;100.00
11444;BME280;5778;47.856;12.154;2023-01-25T00:36:01;97772.00;;;1.08;100.00
11444;BME280;5778;47.856;12.154;2023-01-25T00:38:33;97772.22;;;1.15;100.00
11444;BME280;5778;47.856;12.154;2023-01-25T00:41:00;97766.34;;;1.29;100.00
11444;BME280;5778;47.856;12.154;2023-01-25T00:43:29;97766.16;;;1.22;100.00
11444;BME280;5778;47.856;12.154;2023-01-25T00:45:59;97768.25;;;1.19;100.00
11444;BME280;5778;47.856;12.154;2023-01-25T00:48:26;97769.59;;;1.23;100.00
11444;BME280;5778;47.856;12.154;2023-01-25T00:50:53;97769.59;;;1.23;100.00
11444;BME280;5778;47.856;12.154;2023-01-25T00:53:21;97774.69;;;1.24;100.00
11444;BME280;5778;47.856;12.154;2023-01-25T00:55:51;97772.06;;;1.24;100.00
11444;BME280;5778;47.856;12.154;2023-01-25T00:58:18;97776.97;;;1.27;100.00
11444;BME280;5778;47.856;12.154;2023-01-25T01:00:50;97782.06;;;1.21;100.00
11444;BME280;5778;47.856;12.154;2023-01-25T01:03:19;97783.69;;;1.22;100.00
11444;BME280;5778;47.856;12.154;2023-01-25T01:05:46;97780.22;;;1.21;100.00
11444;BME280;5778;47.856;12.154;2023-01-25T01:08:14;97777.13;;;1.18;100.00
11444;BME280;5778;47.856;12.154;2023-01-25T01:10:41;97784.03;;;1.27;100.00
11444;BME280;5778;47.856;12.154;2023-01-25T01:13:09;97786.31;;;1.22;100.00
11444;BME280;5778;47.856;12.154;2023-01-25T01:15:36;97785.66;;;1.20;100.00
11444;BME280;5778;47.856;12.154;2023-01-25T01:18:05;97781.72;;;1.24;100.00
11444;BME280;5778;47.856;12.154;2023-01-25T01:20:33;97783.53;;;1.31;100.00
11444;BME280;5778;47.856;12.154;2023-01-25T01:23:00;97779.13;;;1.32;100.00
11444;BME280;5778;47.856;12.154;2023-01-25T01:25:27;97777.00;;;1.35;100.00
11444;BME280;5778;47.856;12.154;2023-01-25T01:27:54;97778.50;;;1.38;100.00
11444;BME280;5778;47.856;12.154;2023-01-25T01:30:21;97779.78;;;1.26;100.00
11444;BME280;5778;47.856;12.154;2023-01-25T01:32:50;97783.19;;;1.18;100.00
11444;BME280;5778;47.856;12.154;2023-01-25T01:35:20;97778.75;;;1.19;100.00
11444;BME280;5778;47.856;12.154;2023-01-25T01:37:46;97772.50;;;1.12;100.00
11444;BME280;5778;47.856;12.154;2023-01-25T01:40:15;97783.19;;;1.18;100.00
11444;BME280;5778;47.856;12.154;2023-01-25T01:42:59;97772.22;;;1.15;100.00
11444;BME280;5778;47.856;12.154;2023-01-25T01:45:48;97775.00;;;1.21;100.00
11444;BME280;5778;47.856;12.154;2023-01-25T01:48:30;97763.00;;;1.11;100.00
11444;BME280;5778;47.856;12.154;2023-01-25T01:51:02;97765.97;;;1.16;100.00
11444;BME280;5778;47.856;12.154;2023-01-25T01:53:40;97765.66;;;1.19;100.00
11444;BME280;5778;47.856;12.154;2023-01-25T01:56:14;97765.00;;;1.17;100.00
11444;BME280;5778;47.856;12.154;2023-01-25T01:58:44;97762.38;;;1.17;100.00
11444;BME280;5778;47.856;12.154;2023-01-25T02:01:12;97758.41;;;1.05;100.00
11444;BME280;5778;47.856;12.154;2023-01-25T02:03:42;97761.88;;;1.13;100.00
11444;BME280;5778;47.856;12.154;2023-01-25T02:06:14;97762.38;;;1.17;100.00
11444;BME280;5778;47.856;12.154;2023-01-25T02:08:42;97764.34;;;1.15;100.00
11444;BME280;5778;47.856;12.154;2023-01-25T02:11:11;97767.78;;;1.15;100.00
11444;BME280;5778;47.856;12.154;2023-01-25T02:13:39;97758.41;;;1.05;100.00
11444;BME280;5778;47.856;12.154;2023-01-25T02:16:14;97752.53;;;1.11;100.00
11444;BME280;5778;47.856;12.154;2023-01-25T02:18:43;97760.91;;;1.22;100.00
11444;BME280;5778;47.856;12.154;2023-01-25T02:21:12;97757.13;;;1.09;100.00
11444;BME280;5778;47.856;12.154;2023-01-25T02:23:46;97756.09;;;1.02;100.00
11444;BME280;5778;47.856;12.154;2023-01-25T02:26:18;97749.53;;;0.98;100.00
11444;BME280;5778;47.856;12.154;2023-01-25T02:28:47;97743.97;;;0.93;100.00
11444;BME280;5778;47.856;12.154;2023-01-25T02:31:16;97744.56;;;0.87;100.00
11444;BME280;5778;47.856;12.154;2023-01-25T02:33:45;97740.00;;;0.89;100.00
11444;BME280;5778;47.856;12.154;2023-01-25T02:36:18;97739.00;;;0.82;100.00
11444;BME280;5778;47.856;12.154;2023-01-25T02:38:50;97744.13;;;0.91;100.00
11444;BME280;5778;47.856;12.154;2023-01-25T02:41:24;97730.47;;;0.80;100.00
11444;BME280;5778;47.856;12.154;2023-01-25T02:43:53;97729.81;;;0.78;100.00
11444;BME280;5778;47.856;12.154;2023-01-25T02:46:24;97721.75;;;0.71;100.00
11444;BME280;5778;47.856;12.154;2023-01-25T02:48:54;97732.09;;;0.73;100.00
11444;BME280;5778;47.856;12.154;2023-01-25T02:51:24;97718.66;;;0.76;100.00
11444;BME280;5778;47.856;12.154;2023-01-25T02:53:52;97728.19;;;0.77;100.00
11444;BME280;5778;47.856;12.154;2023-01-25T02:56:22;97722.31;;;0.83;100.00
11444;BME280;5778;47.856;12.154;2023-01-25T02:58:50;97712.63;;;0.75;100.00
11444;BME280;5778;47.856;12.154;2023-01-25T03:01:18;97718.66;;;0.76;100.00
11444;BME280;5778;47.856;12.154;2023-01-25T03:03:47;97722.16;;;0.84;100.00
11444;BME280;5778;47.856;12.154;2023-01-25T03:06:15;97712.28;;;0.70;100.00
11444;BME280;5778;47.856;12.154;2023-01-25T03:08:42;97703.38;;;0.55;100.00
11444;BME280;5778;47.856;12.154;2023-01-25T03:11:10;97702.22;;;0.50;100.00
11444;BME280;5778;47.856;12.154;2023-01-25T03:13:40;97710.09;;;0.58;100.00
11444;BME280;5778;47.856;12.154;2023-01-25T03:16:09;97702.28;;;0.66;100.00
11444;BME280;5778;47.856;12.154;2023-01-25T03:18:39;97708.16;;;0.68;100.00
11444;BME280;5778;47.856;12.154;2023-01-25T03:21:07;97708.72;;;0.79;100.00
11444;BME280;5778;47.856;12.154;2023-01-25T03:23:35;97714.97;;;0.86;100.00
11444;BME280;5778;47.856;12.154;2023-01-25T03:26:07;97706.88;;;0.72;100.00
11444;BME280;5778;47.856;12.154;2023-01-25T03:28:37;97704.91;;;0.74;100.00
11444;BME280;5778;47.856;12.154;2023-01-25T03:31:11;97709.84;;;0.77;100.00
11444;BME280;5778;47.856;12.154;2023-01-25T03:33:41;97713.31;;;0.85;100.00
11444;BME280;5778;47.856;12.154;2023-01-25T03:36:09;97711.56;;;0.94;100.00
11444;BME280;5778;47.856;12.154;2023-01-25T03:38:36;97719.88;;;0.89;100.00
11444;BME280;5778;47.856;12.154;2023-01-25T03:41:07;97713.28;;;0.77;100.00
11444;BME280;5778;47.856;12.154;2023-01-25T03:43:39;97722.75;;;0.70;100.00
11444;BME280;5778;47.856;12.154;2023-01-25T03:46:09;97715.59;;;0.80;100.00
11444;BME280;5778;47.856;12.154;2023-01-25T03:48:37;97706.63;;;0.91;100.00
11444;BME280;5778;47.856;12.154;2023-01-25T03:51:04;97710.56;;;0.95;100.00
11444;BME280;5778;47.856;12.154;2023-01-25T03:53:31;97709.59;;;0.96;100.00
11444;BME280;5778;47.856;12.154;2023-01-25T03:56:07;97708.25;;;0.92;100.00
11444;BME280;5778;47.856;12.154;2023-01-25T03:58:48;97703.50;;;0.87;100.00
11444;BME280;5778;47.856;12.154;2023-01-25T04:01:18;97705.69;;;1.00;100.00
11444;BME280;5778;47.856;12.154;2023-01-25T04:03:48;97704.78;;;0.83;100.00
11444;BME280;5778;47.856;12.154;2023-01-25T04:06:16;97700.41;;;0.92;100.00
11444;BME280;5778;47.856;12.154;2023-01-25T04:08:43;97706.97;;;0.96;100.00
11444;BME280;5778;47.856;12.154;2023-01-25T04:11:11;97700.75;;;0.97;100.00
11444;BME280;5778;47.856;12.154;2023-01-25T04:13:38;97707.59;;;0.82;100.00
11444;BME280;5778;47.856;12.154;2023-01-25T04:16:09;97694.16;;;0.77;100.00
11444;BME280;5778;47.856;12.154;2023-01-25T04:18:58;97705.28;;;0.79;100.00
11444;BME280;5778;47.856;12.154;2023-01-25T04:21:27;97703.34;;;0.89;100.00
11444;BME280;5778;47.856;12.154;2023-01-25T04:23:56;97699.75;;;0.90;100.00
11444;BME280;5778;47.856;12.154;2023-01-25T04:26:23;97698.84;;;0.73;100.00
11444;BME280;5778;47.856;12.154;2023-01-25T04:28:57;97691.97;;;0.64;100.00
11444;BME280;5778;47.856;12.154;2023-01-25T04:31:25;97685.59;;;0.67;100.00
11444;BME280;5778;47.856;12.154;2023-01-25T04:33:54;97688.22;;;0.67;100.00
11444;BME280;5778;47.856;12.154;2023-01-25T04:36:22;97692.63;;;0.66;100.00
11444;BME280;5778;47.856;12.154;2023-01-25T04:38:50;97688.50;;;0.64;100.00
11444;BME280;5778;47.856;12.154;2023-01-25T04:41:18;97680.22;;;0.68;100.00
11444;BME280;5778;47.856;12.154;2023-01-25T04:43:46;97683.31;;;0.72;100.00
11444;BME280;5778;47.856;12.154;2023-01-25T04:46:14;97685.59;;;0.67;100.00
11444;BME280;5778;47.856;12.154;2023-01-25T04:48:41;97686.25;;;0.69;100.00
11444;BME280;5778;47.856;12.154;2023-01-25T04:51:08;97680.00;;;0.62;100.00
11444;BME280;5778;47.856;12.154;2023-01-25T04:53:37;97676.53;;;0.53;100.00
11444;BME280;5778;47.856;12.154;2023-01-25T04:56:06;97678.66;;;0.50;100.00
11444;BME280;5778;47.856;12.154;2023-01-25T04:58:42;97675.19;;;0.49;100.00
11444;BME280;5778;47.856;12.154;2023-01-25T05:01:09;97672.47;;;0.59;100.00
11444;BME280;5778;47.856;12.154;2023-01-25T05:03:36;97678.03;;;0.64;100.00
11444;BME280;5778;47.856;12.154;2023-01-25T05:06:08;97675.44;;;0.64;100.00
11444;BME280;5778;47.856;12.154;2023-01-25T05:08:36;97676.09;;;0.66;100.00
11444;BME280;5778;47.856;12.154;2023-01-25T05:11:05;97671.38;;;0.77;100.00
11444;BME280;5778;47.856;12.154;2023-01-25T05:13:37;97668.91;;;0.68;100.00
11444;BME280;5778;47.856;12.154;2023-01-25T05:16:28;97670.53;;;0.69;100.00
11444;BME280;5778;47.856;12.154;2023-01-25T05:18:55;97672.16;;;0.70;100.00
11444;BME280;5778;47.856;12.154;2023-01-25T05:21:30;97676.81;;;0.84;100.00
11444;BME280;5778;47.856;12.154;2023-01-25T05:24:17;97674.13;;;0.68;100.00
11444;BME280;5778;47.856;12.154;2023-01-25T05:26:44;97665.94;;;0.63;100.00
11444;BME280;5778;47.856;12.154;2023-01-25T05:29:38;97660.41;;;0.66;100.00
11444;BME280;5778;47.856;12.154;2023-01-25T05:32:08;97657.75;;;0.58;100.00
11444;BME280;5778;47.856;12.154;2023-01-25T05:34:37;97653.63;;;0.55;100.00
11444;BME280;5778;47.856;12.154;2023-01-25T05:37:07;97651.38;;;0.60;100.00
11444;BME280;5778;47.856;12.154;2023-01-25T05:39:40;97645.91;;;0.46;100.00
11444;BME280;5778;47.856;12.154;2023-01-25T05:42:10;97648.59;;;0.62;100.00
11444;BME280;5778;47.856;12.154;2023-01-25T05:44:38;97640.09;;;0.60;100.00
11444;BME280;5778;47.856;12.154;2023-01-25T05:47:08;97651.56;;;0.67;100.00
11444;BME280;5778;47.856;12.154;2023-01-25T05:49:37;97641.25;;;0.73;100.00
11444;BME280;5778;47.856;12.154;2023-01-25T05:52:14;97640.13;;;0.76;100.00
11444;BME280;5778;47.856;12.154;2023-01-25T05:54:43;97648.78;;;0.68;100.00
11444;BME280;5778;47.856;12.154;2023-01-25T05:57:14;97641.69;;;0.53;100.00
11444;BME280;5778;47.856;12.154;2023-01-25T05:59:41;97643.88;;;0.65;100.00
11444;BME280;5778;47.856;12.154;2023-01-25T06:02:11;97645.00;;;0.63;100.00
11444;BME280;5778;47.856;12.154;2023-01-25T06:04:39;97649.59;;;0.61;100.00
11444;BME280;5778;47.856;12.154;2023-01-25T06:07:08;97640.75;;;0.62;100.00
11444;BME280;5778;47.856;12.154;2023-01-25T06:09:35;97640.13;;;0.68;100.00
11444;BME280;5778;47.856;12.154;2023-01-25T06:12:04;97633.34;;;0.49;100.00
11444;BME280;5778;47.856;12.154;2023-01-25T06:14:32;97635.16;;;0.57;100.00
11444;BME280;5778;47.856;12.154;2023-01-25T06:17:01;97634.97;;;0.50;100.00
11444;BME280;5778;47.856;12.154;2023-01-25T06:19:48;97634.22;;;0.66;100.00
11444;BME280;5778;47.856;12.154;2023-01-25T06:22:21;97627.03;;;0.68;100.00
11444;BME280;5778;47.856;12.154;2023-01-25T06:24:48;97632.91;;;0.62;100.00
11444;BME280;5778;47.856;12.154;2023-01-25T06:27:17;97633.19;;;0.59;100.00
11444;BME280;5778;47.856;12.154;2023-01-25T06:29:43;97638.09;;;0.54;100.00
11444;BME280;5778;47.856;12.154;2023-01-25T06:32:10;97625.84;;;0.54;100.00
11444;BME280;5778;47.856;12.154;2023-01-25T06:34:37;97638.13;;;0.70;100.00
11444;BME280;5778;47.856;12.154;2023-01-25T06:37:08;97630.63;;;0.67;100.00
11444;BME280;5778;47.856;12.154;2023-01-25T06:39:35;97632.75;;;0.71;100.00
11444;BME280;5778;47.856;12.154;2023-01-25T06:42:01;97633.88;;;0.69;100.00
11444;BME280;5778;47.856;12.154;2023-01-25T06:44:30;97640.69;;;0.54;100.00
11444;BME280;5778;47.856;12.154;2023-01-25T06:46:57;97639.13;;;0.69;100.00
11444;BME280;5778;47.856;12.154;2023-01-25T06:49:24;97630.78;;;0.65;100.00
11444;BME280;5778;47.856;12.154;2023-01-25T06:51:51;97624.84;;;0.47;100.00
11444;BME280;5778;47.856;12.154;2023-01-25T06:54:18;97632.56;;;0.65;100.00
11444;BME280;5778;47.856;12.154;2023-01-25T06:56:45;97636.84;;;0.66;100.00
11444;BME280;5778;47.856;12.154;2023-01-25T06:59:12;97628.47;;;0.62;100.00
11444;BME280;5778;47.856;12.154;2023-01-25T07:01:42;97627.00;;;0.60;100.00
11444;BME280;5778;47.856;12.154;2023-01-25T07:04:10;97621.88;;;0.42;100.00
11444;BME280;5778;47.856;12.154;2023-01-25T07:06:38;97614.47;;;0.38;100.00
11444;BME280;5778;47.856;12.154;2023-01-25T07:09:06;97610.22;;;0.37;100.00
11444;BME280;5778;47.856;12.154;2023-01-25T07:11:33;97614.47;;;0.38;100.00
11444;BME280;5778;47.856;12.154;2023-01-25T07:14:00;97602.00;;;0.24;100.00
11444;BME280;5778;47.856;12.154;2023-01-25T07:16:28;97598.09;;;0.28;100.00
11444;BME280;5778;47.856;12.154;2023-01-25T07:19:02;97598.59;;;0.31;100.00
11444;BME280;5778;47.856;12.154;2023-01-25T07:21:29;97598.69;;;0.14;100.00
11444;BME280;5778;47.856;12.154;2023-01-25T07:23:58;97609.28;;;0.12;100.00
11444;BME280;5778;47.856;12.154;2023-01-25T07:26:26;97603.44;;;0.18;100.00
11444;BME280;5778;47.856;12.154;2023-01-25T07:28:53;97604.63;;;0.24;100.00
11444;BME280;5778;47.856;12.154;2023-01-25T07:31:22;97600.38;;;0.23;100.00
11444;BME280;5778;47.856;12.154;2023-01-25T07:33:50;97591.84;;;0.21;100.00
11444;BME280;5778;47.856;12.154;2023-01-25T07:36:19;97598.59;;;0.31;100.00
11444;BME280;5778;47.856;12.154;2023-01-25T07:38:46;97599.59;;;0.38;100.00
11444;BME280;5778;47.856;12.154;2023-01-25T07:41:13;97595.84;;;0.33;100.00
11444;BME280;5778;47.856;12.154;2023-01-25T07:43:40;97587.63;;;0.28;100.00
11444;BME280;5778;47.856;12.154;2023-01-25T07:46:10;97584.25;;;0.35;100.00
11444;BME280;5778;47.856;12.154;2023-01-25T07:48:38;97589.28;;;0.29;100.00
11444;BME280;5778;47.856;12.154;2023-01-25T07:51:07;97588.28;;;0.22;100.00
11444;BME280;5778;47.856;12.154;2023-01-25T07:53:51;97590.56;;;0.25;100.00
11444;BME280;5778;47.856;12.154;2023-01-25T07:56:20;97593.16;;;0.25;100.00
11444;BME280;5778;47.856;12.154;2023-01-25T07:58:48;97595.63;;;0.26;100.00
11444;BME280;5778;47.856;12.154;2023-01-25T08:01:16;97593.66;;;0.20;100.00
11444;BME280;5778;47.856;12.154;2023-01-25T08:03:44;97600.19;;;0.24;100.00
11444;BME280;5778;47.856;12.154;2023-01-25T08:06:11;97597.78;;;0.31;100.00
11444;BME280;5778;47.856;12.154;2023-01-25T08:08:40;97608.09;;;0.40;100.00
11444;BME280;5778;47.856;12.154;2023-01-25T08:11:12;97598.16;;;0.44;100.00
11444;BME280;5778;47.856;12.154;2023-01-25T08:13:40;97594.28;;;0.56;100.00
11444;BME280;5778;47.856;12.154;2023-01-25T08:16:10;97591.00;;;0.62;100.00
11444;BME280;5778;47.856;12.154;2023-01-25T08:18:37;97598.53;;;0.65;100.00
11444;BME280;5778;47.856;12.154;2023-01-25T08:21:04;97605.25;;;0.67;100.00
11444;BME280;5778;47.856;12.154;2023-01-25T08:23:31;97596.59;;;0.67;100.00
11444;BME280;5778;47.856;12.154;2023-01-25T08:26:00;97603.13;;;0.63;100.00
11444;BME280;5778;47.856;12.154;2023-01-25T08:28:29;97598.22;;;0.76;100.00
11444;BME280;5778;47.856;12.154;2023-01-25T08:31:04;97597.06;;;0.62;100.00
11444;BME280;5778;47.856;12.154;2023-01-25T08:33:30;97597.88;;;0.63;100.00
11444;BME280;5778;47.856;12.154;2023-01-25T08:35:57;97583.31;;;0.60;100.00
11444;BME280;5778;47.856;12.154;2023-01-25T08:38:24;97588.75;;;0.75;100.00
11444;BME280;5778;47.856;12.154;2023-01-25T08:40:51;97580.22;;;0.65;100.00
11444;BME280;5778;47.856;12.154;2023-01-25T08:43:18;97584.84;;;0.71;100.00
11444;BME280;5778;47.856;12.154;2023-01-25T08:45:46;97585.16;;;0.68;100.00
11444;BME280;5778;47.856;12.154;2023-01-25T08:48:13;97576.44;;;0.59;100.00
11444;BME280;5778;47.856;12.154;2023-01-25T08:50:45;97580.34;;;0.55;100.00
11444;BME280;5778;47.856;12.154;2023-01-25T08:53:12;97576.13;;;0.62;100.00
11444;BME280;5778;47.856;12.154;2023-01-25T08:55:39;97580.75;;;0.68;100.00
11444;BME280;5778;47.856;12.154;2023-01-25T08:58:08;97575.31;;;0.62;100.00
11444;BME280;5778;47.856;12.154;2023-01-25T09:00:36;97578.72;;;0.54;100.00
11444;BME280;5778;47.856;12.154;2023-01-25T09:03:04;97581.13;;;0.40;100.00
11444;BME280;5778;47.856;12.154;2023-01-25T09:05:32;97583.75;;;0.40;100.00
11444;BME280;5778;47.856;12.154;2023-01-25T09:07:59;97582.81;;;0.57;100.00
11444;BME280;5778;47.856;12.154;2023-01-25T09:10:27;97589.72;;;0.66;100.00
11444;BME280;5778;47.856;12.154;2023-01-25T09:12:54;97591.66;;;0.64;100.00
11444;BME280;5778;47.856;12.154;2023-01-25T09:15:21;97574.38;;;0.71;100.00
11444;BME280;5778;47.856;12.154;2023-01-25T09:17:49;97577.47;;;0.82;100.00
11444;BME280;5778;47.856;12.154;2023-01-25T09:20:18;97578.66;;;0.96;100.00
11444;BME280;5778;47.856;12.154;2023-01-25T09:22:45;97574.25;;;1.12;100.00
11444;BME280;5778;47.856;12.154;2023-01-25T09:25:13;97564.91;;;1.10;100.00
11444;BME280;5778;47.856;12.154;2023-01-25T09:27:40;97559.34;;;1.13;100.00
11444;BME280;5778;47.856;12.154;2023-01-25T09:30:09;97559.69;;;1.26;100.00
11444;BME280;5778;47.856;12.154;2023-01-25T09:32:37;97559.69;;;1.26;100.00
11444;BME280;5778;47.856;12.154;2023-01-25T09:35:05;97555.41;;;1.33;100.00
11444;BME280;5778;47.856;12.154;2023-01-25T09:37:34;97554.09;;;1.45;100.00
11444;BME280;5778;47.856;12.154;2023-01-25T09:40:01;97553.75;;;1.40;100.00
11444;BME280;5778;47.856;12.154;2023-01-25T09:45:33;97545.09;;;1.39;100.00
11444;BME280;5778;47.856;12.154;2023-01-25T09:48:09;97539.66;;;1.41;100.00
11444;BME280;5778;47.856;12.154;2023-01-25T09:50:52;97548.84;;;1.45;100.00
11444;BME280;5778;47.856;12.154;2023-01-25T09:53:32;97550.47;;;1.54;100.00
11444;BME280;5778;47.856;12.154;2023-01-25T09:56:03;97539.53;;;1.50;100.00
11444;BME280;5778;47.856;12.154;2023-01-25T09:58:36;97542.94;;;1.51;100.00
11444;BME280;5778;47.856;12.154;2023-01-25T10:01:16;97543.78;;;1.51;100.00
11444;BME280;5778;47.856;12.154;2023-01-25T10:03:49;97542.94;;;1.51;100.00
11444;BME280;5778;47.856;12.154;2023-01-25T10:06:21;97536.53;;;1.53;100.00
11444;BME280;5778;47.856;12.154;2023-01-25T10:08:56;97539.34;;;1.36;100.00
11444;BME280;5778;47.856;12.154;2023-01-25T10:11:28;97529.03;;;1.26;100.00
11444;BME280;5778;47.856;12.154;2023-01-25T10:13:56;97531.53;;;1.20;100.00
11444;BME280;5778;47.856;12.154;2023-01-25T10:16:26;97527.75;;;1.06;100.00
11444;BME280;5778;47.856;12.154;2023-01-25T10:19:02;97523.81;;;1.10;100.00
11444;BME280;5778;47.856;12.154;2023-01-25T10:21:34;97521.53;;;1.23;100.00
11444;BME280;5778;47.856;12.154;2023-01-25T10:27:46;97513.50;;;1.33;100.00
11444;BME280;5778;47.856;12.154;2023-01-25T10:30:25;97503.31;;;1.30;100.00
11444;BME280;5778;47.856;12.154;2023-01-25T10:32:55;97505.75;;;1.47;100.00
11444;BME280;5778;47.856;12.154;2023-01-25T10:35:27;97500.03;;;1.44;100.00
11444;BME280;5778;47.856;12.154;2023-01-25T10:37:58;97493.47;;;1.56;100.00
11444;BME280;5778;47.856;12.154;2023-01-25T10:40:37;97491.00;;;1.54;100.00
11444;BME280;5778;47.856;12.154;2023-01-25T10:43:15;97493.28;;;1.57;100.00
11444;BME280;5778;47.856;12.154;2023-01-25T10:45:44;97483.31;;;1.45;100.00
11444;BME280;5778;47.856;12.154;2023-01-25T10:48:13;97484.97;;;1.30;100.00
11444;BME280;5778;47.856;12.154;2023-01-25T10:50:46;97473.03;;;1.27;100.00
11444;BME280;5778;47.856;12.154;2023-01-25T10:53:31;97472.53;;;1.40;100.00
11444;BME280;5778;47.856;12.154;2023-01-25T10:58:50;97462.06;;;1.32;100.00
11444;BME280;5778;47.856;12.154;2023-01-25T11:01:37;97455.16;;;1.39;100.00
11444;BME280;5778;47.856;12.154;2023-01-25T11:04:21;97451.28;;;1.27;100.00
11444;BME280;5778;47.856;12.154;2023-01-25T11:06:49;97451.88;;;1.45;100.00
11444;BME280;5778;47.856;12.154;2023-01-25T11:09:37;97447.34;;;1.31;100.00
11444;BME280;5778;47.856;12.154;2023-01-25T11:12:15;97442.72;;;1.41;100.00
11444;BME280;5778;47.856;12.154;2023-01-25T11:14:45;97446.00;;;1.43;100.00
11444;BME280;5778;47.856;12.154;2023-01-25T11:17:24;97442.06;;;1.39;100.00
11444;BME280;5778;47.856;12.154;2023-01-25T11:20:19;97432.91;;;1.43;100.00
11444;BME280;5778;47.856;12.154;2023-01-25T11:22:51;97428.16;;;1.30;100.00
11444;BME280;5778;47.856;12.154;2023-01-25T11:25:30;97431.28;;;1.34;100.00
11444;BME280;5778;47.856;12.154;2023-01-25T11:28:13;97424.41;;;1.33;100.00
11444;BME280;5778;47.856;12.154;2023-01-25T11:30:43;97421.50;;;1.20;100.00
11444;BME280;5778;47.856;12.154;2023-01-25T11:33:11;97413.91;;;1.25;100.00
11444;BME280;5778;47.856;12.154;2023-01-25T11:35:54;97410.50;;;1.16;100.00
11444;BME280;5778;47.856;12.154;2023-01-25T11:38:25;97410.50;;;1.16;100.00
11444;BME280;5778;47.856;12.154;2023-01-25T11:40:58;97405.81;;;1.04;100.00
11444;BME280;5778;47.856;12.154;2023-01-25T11:43:45;97395.16;;;1.05;100.00
11444;BME280;5778;47.856;12.154;2023-01-25T11:46:32;97387.75;;;1.17;100.00
11444;BME280;5778;47.856;12.154;2023-01-25T11:49:17;97387.41;;;1.28;100.00
11444;BME280;5778;47.856;12.154;2023-01-25T11:51:53;97392.00;;;1.26;100.00
11444;BME280;5778;47.856;12.154;2023-01-25T11:54:35;97392.03;;;1.10;100.00
11444;BME280;5778;47.856;12.154;2023-01-25T11:57:15;97390.22;;;1.18;100.00
11444;BME280;5778;47.856;12.154;2023-01-25T11:59:57;97379.63;;;1.04;100.00
11444;BME280;5778;47.856;12.154;2023-01-25T12:02:54;97366.00;;;1.00;100.00
11444;BME280;5778;47.856;12.154;2023-01-25T12:05:42;97354.38;;;1.11;100.00
11444;BME280;5778;47.856;12.154;2023-01-25T12:08:33;97346.38;;;1.12;100.00
11444;BME280;5778;47.856;12.154;2023-01-25T12:11:08;97340.56;;;1.33;100.00
11444;BME280;5778;47.856;12.154;2023-01-25T12:13:46;97337.25;;;1.39;100.00
11444;BME280;5778;47.856;12.154;2023-01-25T12:16:37;97329.06;;;1.42;100.00
11444;BME280;5778;47.856;12.154;2023-01-25T12:19:23;97319.84;;;1.46;100.00
11444;BME280;5778;47.856;12.154;2023-01-25T12:22:04;97315.69;;;1.59;100.00
11444;BME280;5778;47.856;12.154;2023-01-25T12:24:40;97311.91;;;1.62;100.00
11444;BME280;5778;47.856;12.154;2023-01-25T12:27:22;97301.34;;;1.47;100.00
11444;BME280;5778;47.856;12.154;2023-01-25T12:29:54;97304.31;;;1.44;100.00
11444;BME280;5778;47.856;12.154;2023-01-25T12:32:27;97299.19;;;1.51;100.00
11444;BME280;5778;47.856;12.154;2023-01-25T12:35:09;97289.91;;;1.40;100.00
11444;BME280;5778;47.856;12.154;2023-01-25T12:37:40;97290.41;;;1.36;100.00
11444;BME280;5778;47.856;12.154;2023-01-25T12:40:11;97286.31;;;1.41;100.00
11444;BME280;5778;47.856;12.154;2023-01-25T12:42:43;97286.84;;;1.29;100.00
11444;BME280;5778;47.856;12.154;2023-01-25T12:45:16;97277.03;;;1.31;100.00
11444;BME280;5778;47.856;12.154;2023-01-25T12:47:50;97271.09;;;1.37;100.00
11444;BME280;5778;47.856;12.154;2023-01-25T12:50:23;97270.34;;;1.51;100.00
11444;BME280;5778;47.856;12.154;2023-01-25T12:52:54;97266.28;;;1.48;100.00
11444;BME280;5778;47.856;12.154;2023-01-25T12:55:24;97259.88;;;1.51;100.00
11444;BME280;5778;47.856;12.154;2023-01-25T12:57:57;97256.22;;;1.60;100.00
11444;BME280;5778;47.856;12.154;2023-01-25T13:00:34;97257.09;;;1.52;100.00
11444;BME280;5778;47.856;12.154;2023-01-25T13:03:13;97260.47;;;1.61;100.00
11444;BME280;5778;47.856;12.154;2023-01-25T13:06:05;97264.69;;;1.70;100.00
11444;BME280;5778;47.856;12.154;2023-01-25T13:08:43;97255.34;;;1.67;100.00
11444;BME280;5778;47.856;12.154;2023-01-25T13:11:15;97257.16;;;1.67;100.00
11444;BME280;5778;47.856;12.154;2023-01-25T13:13:46;97259.78;;;1.67;100.00
11444;BME280;5778;47.856;12.154;2023-01-25T13:16:38;97260.44;;;1.69;100.00
11444;BME280;5778;47.856;12.154;2023-01-25T13:19:18;97256.34;;;1.36;100.00
11444;BME280;5778;47.856;12.154;2023-01-25T13:21:47;97258.00;;;1.37;100.00
11444;BME280;5778;47.856;12.154;2023-01-25T13:24:21;97258.84;;;1.29;100.00
11444;BME280;5778;47.856;12.154;2023-01-25T13:27:23;97250.53;;;1.26;100.00
11444;BME280;5778;47.856;12.154;2023-01-25T13:29:55;97259.78;;;1.36;100.00
11444;BME280;5778;47.856;12.154;2023-01-25T13:33:00;97252.06;;;1.43;100.00